createdAt,value
2019-06-26T00:02:09.811Z,58.20
2019-06-26T00:04:36.948Z,57.70
2019-06-26T00:07:04.111Z,56.33
2019-06-26T00:09:32.412Z,59.37
2019-06-26T00:12:01.380Z,58.27
2019-06-26T00:14:28.439Z,59.33
2019-06-26T00:16:55.503Z,58.00
2019-06-26T00:19:22.844Z,60.30
2019-06-26T00:21:49.912Z,56.60
2019-06-26T00:24:17.064Z,59.23
2019-06-26T00:26:44.128Z,55.27
2019-06-26T00:29:11.200Z,57.47
2019-06-26T00:31:38.256Z,62.93
2019-06-26T00:34:05.385Z,61.83
2019-06-26T00:36:33.715Z,60.83
2019-06-26T00:39:00.760Z,61.33
2019-06-26T00:41:29.728Z,59.63
2019-06-26T00:43:56.856Z,64.93
2019-06-26T00:46:23.955Z,62.77
2019-06-26T00:48:51.017Z,63.00
2019-06-26T00:51:18.076Z,59.40
2019-06-26T00:53:45.243Z,59.50
2019-06-26T00:56:12.288Z,64.60
2019-06-26T00:58:39.347Z,66.93
2019-06-26T01:01:06.504Z,65.87
2019-06-26T01:03:33.587Z,70.17
2019-06-26T01:06:00.647Z,69.10
2019-06-26T01:08:27.697Z,71.43
2019-06-26T01:10:54.883Z,68.00
2019-06-26T01:13:21.947Z,72.77
2019-06-26T01:15:49.015Z,74.37
2019-06-26T01:18:16.295Z,74.70
2019-06-26T01:20:43.380Z,76.37
2019-06-26T01:23:10.440Z,74.47
2019-06-26T01:25:37.487Z,72.63
2019-06-26T01:28:04.544Z,72.37
2019-06-26T01:30:31.596Z,75.53
2019-06-26T01:32:58.650Z,72.47
2019-06-26T01:35:25.720Z,73.97
2019-06-26T01:37:52.769Z,77.10
2019-06-26T01:40:19.933Z,77.13
2019-06-26T01:42:47.008Z,81.27
2019-06-26T01:45:15.383Z,75.93
2019-06-26T01:47:42.545Z,73.90
2019-06-26T01:50:10.070Z,78.17
2019-06-26T01:52:37.196Z,77.80
2019-06-26T01:55:04.456Z,79.90
2019-06-26T01:57:31.504Z,75.60
2019-06-26T01:59:58.605Z,79.07
2019-06-26T02:02:25.821Z,77.30
2019-06-26T02:04:52.867Z,82.50
2019-06-26T02:07:19.915Z,79.53
2019-06-26T02:09:46.976Z,81.47
2019-06-26T02:12:14.140Z,79.17
2019-06-26T02:14:41.268Z,74.03
2019-06-26T02:17:08.319Z,75.13
2019-06-26T02:19:35.384Z,76.37
2019-06-26T02:22:02.646Z,79.77
2019-06-26T02:24:29.812Z,76.97
2019-06-26T02:26:57.088Z,85.13
2019-06-26T02:29:25.289Z,81.20
2019-06-26T02:31:52.437Z,81.77
2019-06-26T02:34:19.488Z,81.47
2019-06-26T02:36:46.547Z,85.17
2019-06-26T02:39:13.628Z,76.73
2019-06-26T02:41:40.680Z,80.60
2019-06-26T02:44:07.759Z,79.37
2019-06-26T02:46:34.810Z,83.67
2019-06-26T02:49:01.964Z,73.63
2019-06-26T02:51:28.999Z,72.20
2019-06-26T02:53:56.066Z,76.20
2019-06-26T02:56:23.332Z,76.13
2019-06-26T02:58:50.406Z,75.50
2019-06-26T03:01:17.456Z,69.87
2019-06-26T03:03:44.735Z,71.67
2019-06-26T03:06:11.892Z,68.03
2019-06-26T03:08:39.061Z,70.97
2019-06-26T03:11:06.126Z,67.07
2019-06-26T03:13:33.192Z,71.37
2019-06-26T03:16:00.236Z,74.23
2019-06-26T03:18:27.415Z,69.07
2019-06-26T03:20:54.967Z,67.07
2019-06-26T03:23:22.136Z,63.37
2019-06-26T03:25:49.224Z,67.83
2019-06-26T03:28:16.405Z,60.80
2019-06-26T03:30:43.469Z,68.70
2019-06-26T03:33:10.545Z,64.77
2019-06-26T03:35:40.636Z,67.20
2019-06-26T03:38:06.781Z,70.00
2019-06-26T03:40:33.872Z,64.90
2019-06-26T03:43:00.923Z,60.70
2019-06-26T03:45:28.004Z,65.80
2019-06-26T03:47:55.077Z,68.07
2019-06-26T03:50:22.238Z,65.53
2019-06-26T03:52:49.343Z,71.53
2019-06-26T03:55:16.512Z,65.80
2019-06-26T03:57:43.576Z,70.83
2019-06-26T04:00:10.729Z,65.13
2019-06-26T04:02:37.777Z,75.37
2019-06-26T04:05:05.267Z,66.83
2019-06-26T04:07:32.315Z,66.03
2019-06-26T04:10:00.367Z,67.43
2019-06-26T04:12:27.435Z,67.37
2019-06-26T04:14:56.364Z,67.63
2019-06-26T04:17:25.334Z,69.93
2019-06-26T04:19:54.285Z,67.73
2019-06-26T04:22:23.439Z,69.47
2019-06-26T04:24:53.411Z,71.73
2019-06-26T04:27:22.513Z,66.07
2019-06-26T04:29:49.757Z,65.77
2019-06-26T04:32:17.395Z,69.13
2019-06-26T04:34:44.572Z,70.03
2019-06-26T04:37:11.710Z,67.07
2019-06-26T04:39:39.092Z,69.43
2019-06-26T04:42:06.286Z,71.80
2019-06-26T04:44:33.394Z,71.67
2019-06-26T04:47:00.481Z,70.13
2019-06-26T04:49:27.651Z,71.63
2019-06-26T04:51:54.726Z,72.33
2019-06-26T04:54:22.779Z,68.70
2019-06-26T04:56:49.879Z,70.87
2019-06-26T04:59:17.015Z,64.67
2019-06-26T05:01:44.187Z,69.13
2019-06-26T05:04:11.239Z,69.43
2019-06-26T05:06:39.302Z,67.70
2019-06-26T05:09:06.709Z,66.80
2019-06-26T05:11:33.892Z,69.13
2019-06-26T05:14:01.005Z,69.30
2019-06-26T05:16:28.143Z,64.73
2019-06-26T05:18:55.214Z,64.93
2019-06-26T05:21:22.287Z,67.37
2019-06-26T05:23:49.579Z,65.97
2019-06-26T05:26:17.862Z,61.77
2019-06-26T05:28:44.950Z,65.57
2019-06-26T05:31:12.038Z,64.30
2019-06-26T05:33:39.188Z,65.17
2019-06-26T05:36:06.497Z,61.33
2019-06-26T05:38:33.555Z,65.47
2019-06-26T05:41:00.606Z,63.50
2019-06-26T05:43:27.679Z,63.87
2019-06-26T05:45:54.740Z,54.17
2019-06-26T05:48:22.036Z,62.00
2019-06-26T05:50:49.109Z,60.43
2019-06-26T05:53:16.168Z,53.23
2019-06-26T05:55:43.316Z,64.87
2019-06-26T05:58:11.385Z,55.13
2019-06-26T06:00:38.692Z,57.97
2019-06-26T06:03:05.762Z,57.87
2019-06-26T06:05:32.830Z,52.77
2019-06-26T06:07:59.980Z,62.80
2019-06-26T06:10:27.126Z,60.00
2019-06-26T06:12:54.202Z,58.77
2019-06-26T06:15:21.256Z,62.60
2019-06-26T06:17:48.608Z,64.77
2019-06-26T06:20:22.419Z,61.60
2019-06-26T06:22:49.479Z,61.30
2019-06-26T06:25:16.565Z,60.40
2019-06-26T06:27:43.615Z,61.20
2019-06-26T06:30:16.235Z,54.93
2019-06-26T06:32:43.596Z,55.17
2019-06-26T06:35:10.967Z,59.03
2019-06-26T06:37:38.023Z,55.67
2019-06-26T06:40:05.381Z,64.47
2019-06-26T06:42:32.426Z,61.20
2019-06-26T06:45:00.472Z,63.50
2019-06-26T06:47:27.532Z,62.47
2019-06-26T06:49:54.628Z,57.00
2019-06-26T06:52:21.687Z,64.83
2019-06-26T06:54:48.854Z,60.50
2019-06-26T06:57:15.903Z,64.33
2019-06-26T06:59:44.220Z,54.90
2019-06-26T07:02:11.488Z,66.53
2019-06-26T07:04:38.551Z,58.20
2019-06-26T07:07:05.741Z,61.30
2019-06-26T07:09:32.958Z,61.90
2019-06-26T07:12:00.223Z,64.47
2019-06-26T07:14:27.275Z,64.27
2019-06-26T07:16:54.788Z,68.50
2019-06-26T07:19:21.884Z,66.57
2019-06-26T07:21:48.943Z,67.23
2019-06-26T07:24:16.004Z,67.90
2019-06-26T07:26:43.055Z,66.77
2019-06-26T07:29:10.115Z,69.37
2019-06-26T07:31:38.586Z,64.40
2019-06-26T07:34:05.735Z,65.57
2019-06-26T07:36:34.040Z,63.23
2019-06-26T07:39:01.131Z,63.07
2019-06-26T07:41:28.390Z,62.37
2019-06-26T07:43:55.430Z,62.43
2019-06-26T07:46:22.498Z,62.37
2019-06-26T07:48:49.557Z,62.50
2019-06-26T07:51:16.616Z,62.13
2019-06-26T07:53:43.684Z,64.23
2019-06-26T07:56:10.755Z,61.10
2019-06-26T07:58:37.807Z,61.50
2019-06-26T08:01:04.894Z,59.83
2019-06-26T08:03:31.959Z,62.97
2019-06-26T08:05:59.024Z,62.03
2019-06-26T08:08:28.248Z,58.60
2019-06-26T08:10:55.289Z,63.47
2019-06-26T08:13:22.598Z,60.43
2019-06-26T08:15:49.668Z,63.23
2019-06-26T08:18:16.719Z,64.23
2019-06-26T08:21:00.455Z,60.20
2019-06-26T08:23:13.031Z,66.27
2019-06-26T08:25:40.083Z,65.40
2019-06-26T08:28:07.348Z,63.27
2019-06-26T08:30:34.409Z,63.70
2019-06-26T08:33:01.499Z,63.27
2019-06-26T08:35:28.564Z,64.40
2019-06-26T08:38:09.692Z,69.33
2019-06-26T08:40:24.574Z,68.87
2019-06-26T08:42:51.882Z,64.93
2019-06-26T08:45:19.051Z,65.33
2019-06-26T08:47:46.127Z,61.97
2019-06-26T08:50:13.699Z,65.53
2019-06-26T08:52:40.851Z,62.27
2019-06-26T08:55:08.415Z,60.47
2019-06-26T08:57:35.554Z,62.80
2019-06-26T09:00:03.354Z,61.70
2019-06-26T09:02:31.404Z,66.77
2019-06-26T09:04:58.471Z,62.50
2019-06-26T09:07:25.739Z,57.77
2019-06-26T09:09:52.789Z,60.50
2019-06-26T09:12:20.172Z,56.70
2019-06-26T09:14:47.256Z,55.07
2019-06-26T09:17:15.397Z,55.43
2019-06-26T09:19:42.490Z,54.60
2019-06-26T09:22:09.679Z,50.10
2019-06-26T09:24:36.843Z,51.10
2019-06-26T09:27:04.087Z,49.67
2019-06-26T09:29:31.164Z,49.50
2019-06-26T09:31:58.240Z,51.13
2019-06-26T09:34:25.287Z,47.73
2019-06-26T09:36:52.338Z,49.63
2019-06-26T09:39:19.407Z,47.47
2019-06-26T09:41:46.568Z,45.43
2019-06-26T09:44:13.653Z,47.63
2019-06-26T09:46:40.787Z,44.07
2019-06-26T09:49:07.935Z,40.90
2019-06-26T09:51:34.983Z,42.17
2019-06-26T09:54:02.059Z,41.33
2019-06-26T09:56:29.187Z,39.97
2019-06-26T09:58:56.574Z,37.57
2019-06-26T10:01:23.743Z,36.50
2019-06-26T10:03:50.803Z,39.23
2019-06-26T10:06:17.867Z,34.87
2019-06-26T10:08:44.926Z,36.00
2019-06-26T10:11:12.030Z,40.00
2019-06-26T10:13:39.103Z,34.77
2019-06-26T10:16:06.171Z,36.00
2019-06-26T10:18:33.271Z,34.27
2019-06-26T10:21:00.412Z,34.10
2019-06-26T10:23:27.473Z,31.93
2019-06-26T10:25:54.522Z,32.30
2019-06-26T10:28:21.580Z,34.13
2019-06-26T10:30:48.738Z,30.50
2019-06-26T10:33:15.981Z,28.17
2019-06-26T10:35:43.166Z,30.20
2019-06-26T10:38:10.236Z,30.77
2019-06-26T10:40:37.287Z,30.80
2019-06-26T10:43:04.461Z,30.33
2019-06-26T10:45:31.731Z,32.67
2019-06-26T10:47:59.391Z,26.63
2019-06-26T10:50:26.455Z,30.97
2019-06-26T10:52:53.503Z,30.70
2019-06-26T10:55:20.997Z,31.87
2019-06-26T10:57:48.391Z,32.83
2019-06-26T11:00:17.802Z,32.23
2019-06-26T11:02:44.903Z,33.80
2019-06-26T11:05:12.164Z,29.10
2019-06-26T11:07:39.332Z,35.47
2019-06-26T11:10:06.824Z,29.30
2019-06-26T11:12:33.928Z,31.33
2019-06-26T11:15:01.059Z,29.13
2019-06-26T11:17:28.119Z,32.83
2019-06-26T11:19:55.737Z,31.47
2019-06-26T11:22:22.870Z,31.97
2019-06-26T11:24:49.986Z,36.63
2019-06-26T11:27:17.099Z,35.37
2019-06-26T11:29:44.547Z,33.03
2019-06-26T11:32:11.624Z,34.87
2019-06-26T11:34:39.679Z,32.70
2019-06-26T11:37:06.754Z,33.73
2019-06-26T11:39:33.905Z,34.90
2019-06-26T11:42:01.065Z,37.03
2019-06-26T11:44:29.232Z,31.97
2019-06-26T11:46:56.304Z,35.27
2019-06-26T11:49:23.452Z,35.20
2019-06-26T11:51:50.511Z,37.07
2019-06-26T11:54:17.665Z,37.03
2019-06-26T11:56:44.746Z,40.77
2019-06-26T11:59:11.803Z,40.60
2019-06-26T12:01:38.849Z,42.60
2019-06-26T12:04:06.118Z,39.77
2019-06-26T12:06:33.278Z,45.77
2019-06-26T12:09:01.349Z,46.13
2019-06-26T12:11:28.533Z,44.37
2019-06-26T12:13:55.583Z,41.87
2019-06-26T12:16:23.276Z,47.23
2019-06-26T12:18:50.419Z,46.03
2019-06-26T12:21:17.476Z,46.40
2019-06-26T12:23:44.535Z,44.70
2019-06-26T12:26:11.832Z,48.80
2019-06-26T12:28:39.012Z,46.60
2019-06-26T12:31:06.074Z,47.70
2019-06-26T12:33:33.129Z,46.33
2019-06-26T12:36:00.243Z,41.37
2019-06-26T12:38:27.383Z,47.30
2019-06-26T12:40:54.797Z,44.13
2019-06-26T12:43:21.942Z,40.23
2019-06-26T12:45:50.108Z,43.03
2019-06-26T12:48:17.183Z,43.23
2019-06-26T12:50:44.471Z,40.57
2019-06-26T12:53:11.515Z,37.73
2019-06-26T12:55:38.683Z,37.43
2019-06-26T12:58:13.135Z,39.70
2019-06-26T13:00:34.715Z,33.93
2019-06-26T13:03:01.780Z,36.07
2019-06-26T13:05:28.963Z,38.00
2019-06-26T13:07:56.020Z,35.33
2019-06-26T13:10:23.159Z,35.37
2019-06-26T13:12:50.214Z,37.40
2019-06-26T13:15:17.687Z,36.77
2019-06-26T13:17:44.756Z,32.50
2019-06-26T13:20:12.876Z,32.53
2019-06-26T13:22:40.017Z,32.70
2019-06-26T13:25:07.445Z,34.07
2019-06-26T13:27:34.516Z,32.07
2019-06-26T13:30:01.736Z,26.73
2019-06-26T13:32:29.797Z,30.53
2019-06-26T13:34:56.839Z,28.90
2019-06-26T13:37:23.896Z,27.67
2019-06-26T13:39:50.974Z,29.03
2019-06-26T13:42:18.031Z,25.17
2019-06-26T13:44:46.331Z,23.90
2019-06-26T13:47:13.399Z,24.60
2019-06-26T13:49:40.467Z,23.63
2019-06-26T13:52:07.519Z,24.53
2019-06-26T13:54:34.589Z,25.37
2019-06-26T13:57:01.656Z,22.17
2019-06-26T13:59:28.952Z,24.83
2019-06-26T14:01:56.015Z,22.27
2019-06-26T14:04:23.084Z,23.60
2019-06-26T14:06:50.127Z,24.87
2019-06-26T14:09:17.187Z,22.27
2019-06-26T14:11:44.251Z,21.30
2019-06-26T14:14:11.309Z,19.23
2019-06-26T14:16:38.368Z,19.03
2019-06-26T14:19:05.546Z,17.73
2019-06-26T14:21:32.707Z,19.53
2019-06-26T14:23:59.771Z,15.07
2019-06-26T14:26:26.837Z,15.00
2019-06-26T14:28:54.188Z,14.53
2019-06-26T14:31:21.389Z,13.70
2019-06-26T14:33:48.435Z,12.90
2019-06-26T14:36:15.493Z,16.47
2019-06-26T14:38:42.656Z,15.33
2019-06-26T14:41:09.716Z,16.50
2019-06-26T14:43:36.776Z,15.17
2019-06-26T14:46:03.939Z,14.53
2019-06-26T14:48:31.007Z,14.07
2019-06-26T14:50:58.159Z,14.03
2019-06-26T14:53:25.933Z,14.07
2019-06-26T14:55:53.242Z,13.97
2019-06-26T14:58:20.304Z,13.80
2019-06-26T15:00:47.395Z,13.10
2019-06-26T15:03:14.455Z,13.87
2019-06-26T15:05:41.871Z,14.90
2019-06-26T15:08:08.937Z,16.47
2019-06-26T15:10:35.988Z,15.80
2019-06-26T15:13:03.251Z,15.30
2019-06-26T15:15:30.313Z,14.30
2019-06-26T15:17:57.583Z,14.13
2019-06-26T15:20:24.870Z,12.80
2019-06-26T15:22:51.968Z,14.67
2019-06-26T15:25:19.433Z,13.63
2019-06-26T15:27:46.759Z,12.83
2019-06-26T15:30:17.355Z,12.27
2019-06-26T15:32:44.652Z,10.13
2019-06-26T15:35:11.916Z,11.70
2019-06-26T15:37:39.081Z,10.60
2019-06-26T15:40:06.794Z,9.70
2019-06-26T15:42:34.235Z,10.60
2019-06-26T15:45:01.478Z,9.20
2019-06-26T15:47:28.550Z,9.37
2019-06-26T15:49:55.649Z,9.37
2019-06-26T15:52:22.796Z,8.63
2019-06-26T15:54:49.868Z,8.73
2019-06-26T15:57:16.975Z,8.30
2019-06-26T15:59:44.096Z,7.83
2019-06-26T16:02:11.252Z,8.83
2019-06-26T16:04:38.406Z,8.70
2019-06-26T16:07:05.936Z,8.30
2019-06-26T16:09:32.996Z,9.13
2019-06-26T16:12:00.187Z,8.17
2019-06-26T16:14:27.260Z,9.53
2019-06-26T16:16:56.893Z,8.87
2019-06-26T16:19:24.457Z,7.97
2019-06-26T16:21:51.629Z,7.77
2019-06-26T16:24:18.697Z,7.97
2019-06-26T16:26:45.919Z,7.50
2019-06-26T16:29:12.996Z,8.30
2019-06-26T16:31:40.072Z,8.20
2019-06-26T16:34:07.236Z,7.43
2019-06-26T16:36:34.424Z,7.03
2019-06-26T16:39:01.564Z,6.67
2019-06-26T16:41:29.120Z,6.87
2019-06-26T16:43:56.434Z,6.10
2019-06-26T16:46:23.776Z,6.60
2019-06-26T16:48:50.828Z,5.90
2019-06-26T16:51:17.886Z,6.00
2019-06-26T16:53:45.195Z,6.00
2019-06-26T16:56:12.264Z,6.37
2019-06-26T16:58:39.428Z,8.00
2019-06-26T17:01:06.598Z,6.33
2019-06-26T17:03:33.931Z,7.07
2019-06-26T17:06:01.100Z,6.00
2019-06-26T17:08:28.164Z,5.57
2019-06-26T17:10:55.335Z,6.30
2019-06-26T17:13:22.389Z,5.57
2019-06-26T17:15:49.559Z,6.77
2019-06-26T17:18:16.720Z,6.00
2019-06-26T17:20:43.786Z,6.20
2019-06-26T17:23:10.866Z,6.03
2019-06-26T17:25:37.925Z,5.53
2019-06-26T17:28:05.080Z,5.97
2019-06-26T17:30:32.145Z,6.17
2019-06-26T17:33:00.205Z,5.73
2019-06-26T17:35:27.501Z,6.17
2019-06-26T17:37:54.572Z,6.33
2019-06-26T17:40:21.839Z,6.90
2019-06-26T17:42:48.899Z,6.37
2019-06-26T17:45:16.978Z,6.80
2019-06-26T17:47:44.135Z,6.70
2019-06-26T17:50:11.387Z,6.37
2019-06-26T17:52:38.831Z,6.13
2019-06-26T17:55:06.707Z,5.90
2019-06-26T17:57:33.764Z,5.90
2019-06-26T18:00:01.211Z,6.40
2019-06-26T18:02:28.317Z,6.07
2019-06-26T18:04:55.380Z,5.30
2019-06-26T18:07:22.460Z,5.40
2019-06-26T18:09:49.526Z,5.83
2019-06-26T18:12:16.594Z,5.10
2019-06-26T18:14:43.652Z,5.23
2019-06-26T18:17:21.521Z,4.67
2019-06-26T18:19:39.710Z,4.53
2019-06-26T18:22:07.034Z,4.60
2019-06-26T18:24:34.113Z,4.63
2019-06-26T18:27:01.430Z,4.40
2019-06-26T18:29:28.550Z,4.00
2019-06-26T18:31:55.668Z,4.50
2019-06-26T18:34:22.756Z,3.70
2019-06-26T18:36:49.824Z,4.13
2019-06-26T18:39:16.991Z,4.07
2019-06-26T18:41:44.051Z,3.83
2019-06-26T18:44:12.118Z,3.60
2019-06-26T18:46:39.200Z,3.30
2019-06-26T18:49:06.280Z,3.70
2019-06-26T18:51:33.363Z,3.43
2019-06-26T18:54:01.184Z,3.40
2019-06-26T18:56:29.391Z,3.30
2019-06-26T18:58:56.443Z,3.43
2019-06-26T19:01:23.520Z,3.93
2019-06-26T19:03:50.577Z,3.80
2019-06-26T19:06:17.684Z,3.60
2019-06-26T19:08:44.816Z,3.60
2019-06-26T19:11:11.860Z,3.40
2019-06-26T19:13:38.938Z,3.60
2019-06-26T19:16:06.010Z,3.80
2019-06-26T19:18:33.172Z,3.80
2019-06-26T19:21:00.237Z,3.80
2019-06-26T19:23:27.292Z,3.93
2019-06-26T19:25:54.360Z,3.80
2019-06-26T19:28:23.165Z,3.93
2019-06-26T19:30:50.664Z,3.50
2019-06-26T19:33:18.021Z,3.80
2019-06-26T19:35:45.181Z,3.90
2019-06-26T19:38:12.370Z,4.00
2019-06-26T19:40:39.604Z,3.77
2019-06-26T19:43:06.761Z,3.87
2019-06-26T19:45:33.927Z,3.70
2019-06-26T19:48:01.092Z,4.00
2019-06-26T19:50:28.243Z,3.50
2019-06-26T19:52:55.648Z,4.27
2019-06-26T19:55:22.721Z,3.93
2019-06-26T19:57:49.888Z,4.30
2019-06-26T20:00:17.257Z,3.90
2019-06-26T20:02:44.417Z,3.83
2019-06-26T20:05:13.116Z,4.07
2019-06-26T20:07:40.189Z,3.77
2019-06-26T20:10:11.076Z,3.80
2019-06-26T20:12:38.153Z,4.53
2019-06-26T20:15:06.508Z,3.90
2019-06-26T20:17:33.635Z,3.70
2019-06-26T20:20:00.710Z,3.93
2019-06-26T20:22:28.860Z,3.87
2019-06-26T20:24:57.411Z,3.93
2019-06-26T20:27:24.695Z,3.80
2019-06-26T20:29:51.853Z,3.60
2019-06-26T20:32:18.907Z,3.63
2019-06-26T20:34:46.078Z,4.20
2019-06-26T20:37:13.147Z,3.87
2019-06-26T20:39:40.206Z,4.00
2019-06-26T20:42:07.493Z,4.30
2019-06-26T20:44:34.571Z,3.77
2019-06-26T20:47:01.617Z,4.80
2019-06-26T20:49:28.787Z,3.57
2019-06-26T20:51:55.844Z,4.40
2019-06-26T20:54:22.899Z,4.20
2019-06-26T20:56:49.952Z,3.67
2019-06-26T20:59:17.004Z,4.30
2019-06-26T21:01:44.088Z,3.20
2019-06-26T21:04:11.148Z,3.80
2019-06-26T21:06:38.337Z,3.63
2019-06-26T21:09:05.512Z,4.37
2019-06-26T21:11:34.036Z,4.23
2019-06-26T21:14:01.219Z,4.20
2019-06-26T21:16:28.549Z,3.80
2019-06-26T21:18:55.957Z,3.73
2019-06-26T21:21:23.027Z,4.13
2019-06-26T21:23:50.084Z,4.20
2019-06-26T21:26:17.176Z,4.70
2019-06-26T21:28:44.227Z,4.53
2019-06-26T21:31:11.282Z,4.13
2019-06-26T21:33:38.448Z,4.40
2019-06-26T21:36:05.513Z,3.90
2019-06-26T21:38:32.659Z,4.37
2019-06-26T21:40:59.945Z,3.97
2019-06-26T21:43:27.158Z,4.50
2019-06-26T21:45:54.316Z,4.20
2019-06-26T21:48:21.617Z,4.13
2019-06-26T21:50:48.704Z,4.27
2019-06-26T21:53:16.027Z,4.50
2019-06-26T21:56:01.641Z,4.33
2019-06-26T21:58:46.925Z,4.20
2019-06-26T22:01:32.456Z,4.37
2019-06-26T22:04:18.139Z,4.23
2019-06-26T22:07:03.572Z,4.37
2019-06-26T22:09:44.531Z,4.43
2019-06-26T22:12:11.781Z,4.40
2019-06-26T22:14:38.937Z,4.33
2019-06-26T22:17:07.209Z,4.47
2019-06-26T22:19:34.259Z,5.00
2019-06-26T22:22:01.579Z,4.10
2019-06-26T22:24:28.631Z,5.07
2019-06-26T22:26:55.687Z,4.67
2019-06-26T22:29:22.741Z,4.80
2019-06-26T22:31:50.880Z,4.40
2019-06-26T22:34:18.428Z,4.23
2019-06-26T22:36:51.747Z,4.73
2019-06-26T22:39:14.461Z,4.60
2019-06-26T22:41:41.547Z,4.40
2019-06-26T22:44:09.608Z,4.67
2019-06-26T22:46:37.688Z,4.67
2019-06-26T22:49:04.988Z,4.40
2019-06-26T22:51:32.052Z,4.90
2019-06-26T22:53:59.125Z,4.73
2019-06-26T22:56:26.264Z,4.23
2019-06-26T22:58:53.303Z,4.50
2019-06-26T23:01:20.379Z,4.07
2019-06-26T23:03:47.436Z,4.40
2019-06-26T23:06:14.494Z,4.83
2019-06-26T23:08:41.560Z,4.43
2019-06-26T23:11:08.726Z,4.27
2019-06-26T23:13:35.777Z,4.60
2019-06-26T23:16:03.037Z,4.40
2019-06-26T23:18:30.098Z,4.33
2019-06-26T23:20:57.272Z,4.27
2019-06-26T23:23:24.348Z,4.40
2019-06-26T23:25:51.518Z,4.30
2019-06-26T23:28:18.593Z,4.67
2019-06-26T23:30:45.755Z,4.80
2019-06-26T23:33:12.839Z,4.57
2019-06-26T23:35:39.895Z,4.90
2019-06-26T23:38:06.979Z,4.20
2019-06-26T23:40:34.031Z,4.40
2019-06-26T23:43:01.087Z,4.87
2019-06-26T23:45:28.143Z,4.30
2019-06-26T23:47:55.196Z,4.37
2019-06-26T23:50:22.489Z,4.37
2019-06-26T23:52:50.555Z,4.63
2019-06-26T23:55:17.820Z,4.20
2019-06-26T23:57:58.374Z,4.73
